sensor_id;sensor_type;location;lat;lon;timestamp;P1;durP1;ratioP1;P2;durP2;ratioP2
793;SDS011;380;48.738;9.214;2023-06-01T00:01:09;6.28;;;2.60;;
793;SDS011;380;48.738;9.214;2023-06-01T00:03:37;3.03;;;2.17;;
793;SDS011;380;48.738;9.214;2023-06-01T00:06:04;3.95;;;2.10;;
793;SDS011;380;48.738;9.214;2023-06-01T00:08:31;2.95;;;2.10;;
793;SDS011;380;48.738;9.214;2023-06-01T00:10:57;3.38;;;2.20;;
793;SDS011;380;48.738;9.214;2023-06-01T00:13:24;4.75;;;2.53;;
793;SDS011;380;48.738;9.214;2023-06-01T00:15:50;3.22;;;1.83;;
793;SDS011;380;48.738;9.214;2023-06-01T00:18:16;4.97;;;2.55;;
793;SDS011;380;48.738;9.214;2023-06-01T00:20:42;2.47;;;1.83;;
793;SDS011;380;48.738;9.214;2023-06-01T00:23:09;3.90;;;2.08;;
793;SDS011;380;48.738;9.214;2023-06-01T00:25:35;4.25;;;2.53;;
793;SDS011;380;48.738;9.214;2023-06-01T00:28:01;6.72;;;2.38;;
793;SDS011;380;48.738;9.214;2023-06-01T00:30:27;2.15;;;1.48;;
793;SDS011;380;48.738;9.214;2023-06-01T00:32:53;4.18;;;2.63;;
793;SDS011;380;48.738;9.214;2023-06-01T00:35:19;5.05;;;2.70;;
793;SDS011;380;48.738;9.214;2023-06-01T00:37:45;3.10;;;2.30;;
793;SDS011;380;48.738;9.214;2023-06-01T00:40:11;3.50;;;1.92;;
793;SDS011;380;48.738;9.214;2023-06-01T00:42:37;3.25;;;2.30;;
793;SDS011;380;48.738;9.214;2023-06-01T00:45:03;4.10;;;2.30;;
793;SDS011;380;48.738;9.214;2023-06-01T00:47:30;4.07;;;2.53;;
793;SDS011;380;48.738;9.214;2023-06-01T00:49:58;2.97;;;2.08;;
793;SDS011;380;48.738;9.214;2023-06-01T00:52:24;3.45;;;2.22;;
793;SDS011;380;48.738;9.214;2023-06-01T00:54:50;5.60;;;2.03;;
793;SDS011;380;48.738;9.214;2023-06-01T00:57:16;3.45;;;1.77;;
793;SDS011;380;48.738;9.214;2023-06-01T00:59:42;2.47;;;1.75;;
793;SDS011;380;48.738;9.214;2023-06-01T01:02:08;4.82;;;2.47;;
793;SDS011;380;48.738;9.214;2023-06-01T01:04:34;3.13;;;1.88;;
793;SDS011;380;48.738;9.214;2023-06-01T01:12:14;3.35;;;2.15;;
793;SDS011;380;48.738;9.214;2023-06-01T01:14:46;4.88;;;2.00;;
793;SDS011;380;48.738;9.214;2023-06-01T01:17:26;4.40;;;2.67;;
793;SDS011;380;48.738;9.214;2023-06-01T01:20:06;3.90;;;2.55;;
793;SDS011;380;48.738;9.214;2023-06-01T01:30:27;3.10;;;1.98;;
793;SDS011;380;48.738;9.214;2023-06-01T01:32:54;3.75;;;2.28;;
793;SDS011;380;48.738;9.214;2023-06-01T01:35:22;3.97;;;1.90;;
793;SDS011;380;48.738;9.214;2023-06-01T01:37:52;3.28;;;2.10;;
793;SDS011;380;48.738;9.214;2023-06-01T01:40:18;2.40;;;1.60;;
793;SDS011;380;48.738;9.214;2023-06-01T01:42:45;3.55;;;2.13;;
793;SDS011;380;48.738;9.214;2023-06-01T01:45:11;5.90;;;2.30;;
793;SDS011;380;48.738;9.214;2023-06-01T01:50:06;4.38;;;2.40;;
793;SDS011;380;48.738;9.214;2023-06-01T01:52:37;2.92;;;2.08;;
793;SDS011;380;48.738;9.214;2023-06-01T01:55:05;4.47;;;2.00;;
793;SDS011;380;48.738;9.214;2023-06-01T01:57:31;6.50;;;2.25;;
793;SDS011;380;48.738;9.214;2023-06-01T01:59:59;3.13;;;2.53;;
793;SDS011;380;48.738;9.214;2023-06-01T02:02:25;2.65;;;1.88;;
793;SDS011;380;48.738;9.214;2023-06-01T02:04:51;6.78;;;1.75;;
793;SDS011;380;48.738;9.214;2023-06-01T02:07:17;2.97;;;2.03;;
793;SDS011;380;48.738;9.214;2023-06-01T02:09:43;4.28;;;2.17;;
793;SDS011;380;48.738;9.214;2023-06-01T02:12:09;5.65;;;1.52;;
793;SDS011;380;48.738;9.214;2023-06-01T02:14:35;3.35;;;2.05;;
793;SDS011;380;48.738;9.214;2023-06-01T02:17:01;3.38;;;1.63;;
793;SDS011;380;48.738;9.214;2023-06-01T02:19:27;3.00;;;2.03;;
793;SDS011;380;48.738;9.214;2023-06-01T02:21:53;3.25;;;2.15;;
793;SDS011;380;48.738;9.214;2023-06-01T02:24:20;3.35;;;1.85;;
793;SDS011;380;48.738;9.214;2023-06-01T02:26:46;3.28;;;2.08;;
793;SDS011;380;48.738;9.214;2023-06-01T02:29:14;4.35;;;1.85;;
793;SDS011;380;48.738;9.214;2023-06-01T02:31:40;3.13;;;1.83;;
793;SDS011;380;48.738;9.214;2023-06-01T02:34:06;3.78;;;2.03;;
793;SDS011;380;48.738;9.214;2023-06-01T02:36:32;3.30;;;2.10;;
793;SDS011;380;48.738;9.214;2023-06-01T02:38:59;2.78;;;2.20;;
793;SDS011;380;48.738;9.214;2023-06-01T02:41:25;3.97;;;2.38;;
793;SDS011;380;48.738;9.214;2023-06-01T02:43:51;3.25;;;1.67;;
793;SDS011;380;48.738;9.214;2023-06-01T02:46:17;4.47;;;2.38;;
793;SDS011;380;48.738;9.214;2023-06-01T02:48:44;4.05;;;1.80;;
793;SDS011;380;48.738;9.214;2023-06-01T02:51:10;2.33;;;1.70;;
793;SDS011;380;48.738;9.214;2023-06-01T02:53:38;4.45;;;2.30;;
793;SDS011;380;48.738;9.214;2023-06-01T02:56:04;2.65;;;1.77;;
793;SDS011;380;48.738;9.214;2023-06-01T02:58:30;3.53;;;2.10;;
793;SDS011;380;48.738;9.214;2023-06-01T03:00:56;2.40;;;1.70;;
793;SDS011;380;48.738;9.214;2023-06-01T03:03:23;4.55;;;2.33;;
793;SDS011;380;48.738;9.214;2023-06-01T03:05:49;4.40;;;2.15;;
793;SDS011;380;48.738;9.214;2023-06-01T03:08:15;3.58;;;1.90;;
793;SDS011;380;48.738;9.214;2023-06-01T03:10:41;2.85;;;2.00;;
793;SDS011;380;48.738;9.214;2023-06-01T03:13:07;3.90;;;2.38;;
793;SDS011;380;48.738;9.214;2023-06-01T03:15:33;5.82;;;2.42;;
793;SDS011;380;48.738;9.214;2023-06-01T03:17:59;3.78;;;2.65;;
793;SDS011;380;48.738;9.214;2023-06-01T03:20:28;4.22;;;2.20;;
793;SDS011;380;48.738;9.214;2023-06-01T03:22:54;4.28;;;2.45;;
793;SDS011;380;48.738;9.214;2023-06-01T03:25:20;3.65;;;2.00;;
793;SDS011;380;48.738;9.214;2023-06-01T03:27:47;3.50;;;2.47;;
793;SDS011;380;48.738;9.214;2023-06-01T03:30:13;3.25;;;1.92;;
793;SDS011;380;48.738;9.214;2023-06-01T03:32:39;4.43;;;2.50;;
793;SDS011;380;48.738;9.214;2023-06-01T03:35:06;4.68;;;2.00;;
793;SDS011;380;48.738;9.214;2023-06-01T03:37:33;3.67;;;2.13;;
793;SDS011;380;48.738;9.214;2023-06-01T03:40:00;2.83;;;1.50;;
793;SDS011;380;48.738;9.214;2023-06-01T03:42:26;4.38;;;1.90;;
793;SDS011;380;48.738;9.214;2023-06-01T03:44:52;3.45;;;1.77;;
793;SDS011;380;48.738;9.214;2023-06-01T03:47:18;3.22;;;1.83;;
793;SDS011;380;48.738;9.214;2023-06-01T03:49:44;5.18;;;2.28;;
793;SDS011;380;48.738;9.214;2023-06-01T03:52:10;4.80;;;2.45;;
793;SDS011;380;48.738;9.214;2023-06-01T03:54:36;2.60;;;1.80;;
793;SDS011;380;48.738;9.214;2023-06-01T03:57:02;3.50;;;2.42;;
793;SDS011;380;48.738;9.214;2023-06-01T03:59:28;2.10;;;1.30;;
793;SDS011;380;48.738;9.214;2023-06-01T04:01:54;3.50;;;1.98;;
793;SDS011;380;48.738;9.214;2023-06-01T04:04:21;3.35;;;2.22;;
793;SDS011;380;48.738;9.214;2023-06-01T04:06:49;3.35;;;1.98;;
793;SDS011;380;48.738;9.214;2023-06-01T04:09:16;3.40;;;2.50;;
793;SDS011;380;48.738;9.214;2023-06-01T04:11:43;2.85;;;1.75;;
793;SDS011;380;48.738;9.214;2023-06-01T04:14:09;2.88;;;1.60;;
793;SDS011;380;48.738;9.214;2023-06-01T04:16:35;4.65;;;2.22;;
793;SDS011;380;48.738;9.214;2023-06-01T04:19:01;2.97;;;1.90;;
793;SDS011;380;48.738;9.214;2023-06-01T04:21:27;6.68;;;2.10;;
793;SDS011;380;48.738;9.214;2023-06-01T04:23:53;3.30;;;1.73;;
793;SDS011;380;48.738;9.214;2023-06-01T04:26:19;3.80;;;2.35;;
793;SDS011;380;48.738;9.214;2023-06-01T04:28:45;2.65;;;1.73;;
793;SDS011;380;48.738;9.214;2023-06-01T04:31:13;3.38;;;2.08;;
793;SDS011;380;48.738;9.214;2023-06-01T04:33:45;4.10;;;1.55;;
793;SDS011;380;48.738;9.214;2023-06-01T04:36:17;2.45;;;1.85;;
793;SDS011;380;48.738;9.214;2023-06-01T04:38:46;8.50;;;2.20;;
793;SDS011;380;48.738;9.214;2023-06-01T04:41:16;3.92;;;2.00;;
793;SDS011;380;48.738;9.214;2023-06-01T04:43:42;3.40;;;1.90;;
793;SDS011;380;48.738;9.214;2023-06-01T04:46:08;2.88;;;1.65;;
793;SDS011;380;48.738;9.214;2023-06-01T04:48:34;3.90;;;2.13;;
793;SDS011;380;48.738;9.214;2023-06-01T04:51:00;3.38;;;2.25;;
793;SDS011;380;48.738;9.214;2023-06-01T04:53:29;4.47;;;2.70;;
793;SDS011;380;48.738;9.214;2023-06-01T04:55:55;3.25;;;1.65;;
793;SDS011;380;48.738;9.214;2023-06-01T04:58:21;3.95;;;2.45;;
793;SDS011;380;48.738;9.214;2023-06-01T05:00:47;2.45;;;1.90;;
793;SDS011;380;48.738;9.214;2023-06-01T05:03:13;4.25;;;2.03;;
793;SDS011;380;48.738;9.214;2023-06-01T05:05:40;4.55;;;2.33;;
793;SDS011;380;48.738;9.214;2023-06-01T05:08:06;3.05;;;2.15;;
793;SDS011;380;48.738;9.214;2023-06-01T05:10:32;4.40;;;1.83;;
793;SDS011;380;48.738;9.214;2023-06-01T05:12:58;3.58;;;2.00;;
793;SDS011;380;48.738;9.214;2023-06-01T05:15:24;3.83;;;2.25;;
793;SDS011;380;48.738;9.214;2023-06-01T05:17:53;4.13;;;1.88;;
793;SDS011;380;48.738;9.214;2023-06-01T05:20:18;4.18;;;2.20;;
793;SDS011;380;48.738;9.214;2023-06-01T05:22:45;3.75;;;2.47;;
793;SDS011;380;48.738;9.214;2023-06-01T05:25:11;2.53;;;1.50;;
793;SDS011;380;48.738;9.214;2023-06-01T05:27:38;3.63;;;1.95;;
793;SDS011;380;48.738;9.214;2023-06-01T05:30:04;4.90;;;2.08;;
793;SDS011;380;48.738;9.214;2023-06-01T05:32:30;3.17;;;2.13;;
793;SDS011;380;48.738;9.214;2023-06-01T05:34:56;6.05;;;2.65;;
793;SDS011;380;48.738;9.214;2023-06-01T05:37:22;6.07;;;1.73;;
793;SDS011;380;48.738;9.214;2023-06-01T05:39:48;3.78;;;2.33;;
793;SDS011;380;48.738;9.214;2023-06-01T05:42:14;2.80;;;1.80;;
793;SDS011;380;48.738;9.214;2023-06-01T05:44:40;3.80;;;2.00;;
793;SDS011;380;48.738;9.214;2023-06-01T05:47:06;4.60;;;2.72;;
793;SDS011;380;48.738;9.214;2023-06-01T05:49:33;3.63;;;2.45;;
793;SDS011;380;48.738;9.214;2023-06-01T05:51:59;2.95;;;2.33;;
793;SDS011;380;48.738;9.214;2023-06-01T05:54:25;3.05;;;1.83;;
793;SDS011;380;48.738;9.214;2023-06-01T05:56:51;2.83;;;2.00;;
793;SDS011;380;48.738;9.214;2023-06-01T05:59:17;3.58;;;2.05;;
793;SDS011;380;48.738;9.214;2023-06-01T06:01:43;5.07;;;2.55;;
793;SDS011;380;48.738;9.214;2023-06-01T06:04:09;3.58;;;2.30;;
793;SDS011;380;48.738;9.214;2023-06-01T06:06:36;4.55;;;2.70;;
793;SDS011;380;48.738;9.214;2023-06-01T06:09:02;3.40;;;2.25;;
793;SDS011;380;48.738;9.214;2023-06-01T06:11:29;3.80;;;2.65;;
793;SDS011;380;48.738;9.214;2023-06-01T06:13:55;5.35;;;3.20;;
793;SDS011;380;48.738;9.214;2023-06-01T06:16:21;5.85;;;2.70;;
793;SDS011;380;48.738;9.214;2023-06-01T06:18:47;4.15;;;2.85;;
793;SDS011;380;48.738;9.214;2023-06-01T06:21:13;6.97;;;3.60;;
793;SDS011;380;48.738;9.214;2023-06-01T06:23:39;4.88;;;2.92;;
793;SDS011;380;48.738;9.214;2023-06-01T06:26:06;3.60;;;2.65;;
793;SDS011;380;48.738;9.214;2023-06-01T06:28:32;8.75;;;2.80;;
793;SDS011;380;48.738;9.214;2023-06-01T06:30:58;6.10;;;2.90;;
793;SDS011;380;48.738;9.214;2023-06-01T06:33:24;3.63;;;2.80;;
793;SDS011;380;48.738;9.214;2023-06-01T06:35:50;4.05;;;3.22;;
793;SDS011;380;48.738;9.214;2023-06-01T06:38:16;5.07;;;3.42;;
793;SDS011;380;48.738;9.214;2023-06-01T06:40:42;4.32;;;2.55;;
793;SDS011;380;48.738;9.214;2023-06-01T06:43:08;8.73;;;3.63;;
793;SDS011;380;48.738;9.214;2023-06-01T06:45:34;4.55;;;3.13;;
793;SDS011;380;48.738;9.214;2023-06-01T06:48:00;4.68;;;2.85;;
793;SDS011;380;48.738;9.214;2023-06-01T06:50:26;7.53;;;3.38;;
793;SDS011;380;48.738;9.214;2023-06-01T06:52:52;3.92;;;2.83;;
793;SDS011;380;48.738;9.214;2023-06-01T06:55:18;4.18;;;3.00;;
793;SDS011;380;48.738;9.214;2023-06-01T06:57:45;5.05;;;2.60;;
793;SDS011;380;48.738;9.214;2023-06-01T07:00:11;4.47;;;2.67;;
793;SDS011;380;48.738;9.214;2023-06-01T07:02:39;3.80;;;2.40;;
793;SDS011;380;48.738;9.214;2023-06-01T07:05:06;8.93;;;2.97;;
793;SDS011;380;48.738;9.214;2023-06-01T07:07:33;5.00;;;2.88;;
793;SDS011;380;48.738;9.214;2023-06-01T07:09:59;4.03;;;2.63;;
793;SDS011;380;48.738;9.214;2023-06-01T07:12:25;3.80;;;2.70;;
793;SDS011;380;48.738;9.214;2023-06-01T07:14:51;4.00;;;2.90;;
793;SDS011;380;48.738;9.214;2023-06-01T07:17:17;6.63;;;3.35;;
793;SDS011;380;48.738;9.214;2023-06-01T07:19:43;3.88;;;2.75;;
793;SDS011;380;48.738;9.214;2023-06-01T07:22:10;3.38;;;2.47;;
793;SDS011;380;48.738;9.214;2023-06-01T07:24:36;5.22;;;2.42;;
793;SDS011;380;48.738;9.214;2023-06-01T07:27:02;4.47;;;2.83;;
793;SDS011;380;48.738;9.214;2023-06-01T07:29:28;3.13;;;2.40;;
793;SDS011;380;48.738;9.214;2023-06-01T07:31:54;6.38;;;3.03;;
793;SDS011;380;48.738;9.214;2023-06-01T07:34:20;6.88;;;2.92;;
793;SDS011;380;48.738;9.214;2023-06-01T07:36:46;4.18;;;2.78;;
793;SDS011;380;48.738;9.214;2023-06-01T07:39:13;4.07;;;2.75;;
793;SDS011;380;48.738;9.214;2023-06-01T07:41:39;4.05;;;2.97;;
793;SDS011;380;48.738;9.214;2023-06-01T07:44:06;5.93;;;3.63;;
793;SDS011;380;48.738;9.214;2023-06-01T07:46:32;5.93;;;2.88;;
793;SDS011;380;48.738;9.214;2023-06-01T07:48:58;3.95;;;2.83;;
793;SDS011;380;48.738;9.214;2023-06-01T07:51:24;11.95;;;3.40;;
793;SDS011;380;48.738;9.214;2023-06-01T07:53:50;4.63;;;3.13;;
793;SDS011;380;48.738;9.214;2023-06-01T07:56:17;6.70;;;3.25;;
793;SDS011;380;48.738;9.214;2023-06-01T07:58:43;3.47;;;2.47;;
793;SDS011;380;48.738;9.214;2023-06-01T08:01:09;3.47;;;3.13;;
793;SDS011;380;48.738;9.214;2023-06-01T08:03:35;3.83;;;2.60;;
793;SDS011;380;48.738;9.214;2023-06-01T08:06:01;7.60;;;3.30;;
793;SDS011;380;48.738;9.214;2023-06-01T08:08:30;3.65;;;2.65;;
793;SDS011;380;48.738;9.214;2023-06-01T08:10:55;9.25;;;3.20;;
793;SDS011;380;48.738;9.214;2023-06-01T08:13:22;4.45;;;3.05;;
793;SDS011;380;48.738;9.214;2023-06-01T08:15:50;7.07;;;3.22;;
793;SDS011;380;48.738;9.214;2023-06-01T08:18:17;4.93;;;2.90;;
793;SDS011;380;48.738;9.214;2023-06-01T08:20:44;4.43;;;3.22;;
793;SDS011;380;48.738;9.214;2023-06-01T08:23:10;4.28;;;3.45;;
793;SDS011;380;48.738;9.214;2023-06-01T08:25:37;6.30;;;3.08;;
793;SDS011;380;48.738;9.214;2023-06-01T08:28:03;5.03;;;3.05;;
793;SDS011;380;48.738;9.214;2023-06-01T08:30:29;8.05;;;2.80;;
793;SDS011;380;48.738;9.214;2023-06-01T08:32:56;4.18;;;2.83;;
793;SDS011;380;48.738;9.214;2023-06-01T08:35:22;5.53;;;2.63;;
793;SDS011;380;48.738;9.214;2023-06-01T08:37:49;5.45;;;3.90;;
793;SDS011;380;48.738;9.214;2023-06-01T08:40:15;4.38;;;3.30;;
793;SDS011;380;48.738;9.214;2023-06-01T08:45:11;5.65;;;3.30;;
793;SDS011;380;48.738;9.214;2023-06-01T08:47:37;5.72;;;3.50;;
793;SDS011;380;48.738;9.214;2023-06-01T08:50:03;4.63;;;3.70;;
793;SDS011;380;48.738;9.214;2023-06-01T08:52:30;6.15;;;3.55;;
793;SDS011;380;48.738;9.214;2023-06-01T08:55:00;3.95;;;2.95;;
793;SDS011;380;48.738;9.214;2023-06-01T08:57:27;7.97;;;3.75;;
793;SDS011;380;48.738;9.214;2023-06-01T08:59:53;5.20;;;3.15;;
793;SDS011;380;48.738;9.214;2023-06-01T09:02:19;7.28;;;3.63;;
793;SDS011;380;48.738;9.214;2023-06-01T09:04:45;4.65;;;3.28;;
793;SDS011;380;48.738;9.214;2023-06-01T09:07:12;4.72;;;2.95;;
793;SDS011;380;48.738;9.214;2023-06-01T09:09:38;3.88;;;3.05;;
793;SDS011;380;48.738;9.214;2023-06-01T09:12:23;5.10;;;3.45;;
793;SDS011;380;48.738;9.214;2023-06-01T09:14:51;7.85;;;3.75;;
793;SDS011;380;48.738;9.214;2023-06-01T09:17:28;4.15;;;3.63;;
793;SDS011;380;48.738;9.214;2023-06-01T09:19:54;6.13;;;3.28;;
793;SDS011;380;48.738;9.214;2023-06-01T09:22:21;12.52;;;4.25;;
793;SDS011;380;48.738;9.214;2023-06-01T09:24:59;4.85;;;3.45;;
793;SDS011;380;48.738;9.214;2023-06-01T09:27:25;4.35;;;3.67;;
793;SDS011;380;48.738;9.214;2023-06-01T09:29:55;7.35;;;3.67;;
793;SDS011;380;48.738;9.214;2023-06-01T09:32:22;5.60;;;3.42;;
793;SDS011;380;48.738;9.214;2023-06-01T09:34:49;4.60;;;3.55;;
793;SDS011;380;48.738;9.214;2023-06-01T09:37:15;7.10;;;3.60;;
793;SDS011;380;48.738;9.214;2023-06-01T09:39:41;6.53;;;2.88;;
793;SDS011;380;48.738;9.214;2023-06-01T09:42:08;8.13;;;4.03;;
793;SDS011;380;48.738;9.214;2023-06-01T09:44:38;5.32;;;3.30;;
793;SDS011;380;48.738;9.214;2023-06-01T09:49:32;3.47;;;3.13;;
793;SDS011;380;48.738;9.214;2023-06-01T09:54:28;3.53;;;3.05;;
793;SDS011;380;48.738;9.214;2023-06-01T09:56:55;4.85;;;3.20;;
793;SDS011;380;48.738;9.214;2023-06-01T09:59:21;5.18;;;3.67;;
793;SDS011;380;48.738;9.214;2023-06-01T10:01:49;4.78;;;3.00;;
793;SDS011;380;48.738;9.214;2023-06-01T10:04:17;5.65;;;3.75;;
793;SDS011;380;48.738;9.214;2023-06-01T10:06:44;5.65;;;3.95;;
793;SDS011;380;48.738;9.214;2023-06-01T10:09:11;5.80;;;3.80;;
793;SDS011;380;48.738;9.214;2023-06-01T10:11:40;4.72;;;3.78;;
793;SDS011;380;48.738;9.214;2023-06-01T10:14:06;4.03;;;3.40;;
793;SDS011;380;48.738;9.214;2023-06-01T10:16:32;5.32;;;4.07;;
793;SDS011;380;48.738;9.214;2023-06-01T10:18:59;5.07;;;3.80;;
793;SDS011;380;48.738;9.214;2023-06-01T10:21:26;5.40;;;3.42;;
793;SDS011;380;48.738;9.214;2023-06-01T10:23:53;7.38;;;3.92;;
793;SDS011;380;48.738;9.214;2023-06-01T10:26:19;5.78;;;3.15;;
793;SDS011;380;48.738;9.214;2023-06-01T10:28:46;8.52;;;4.75;;
793;SDS011;380;48.738;9.214;2023-06-01T10:33:57;4.72;;;3.40;;
793;SDS011;380;48.738;9.214;2023-06-01T10:36:23;4.30;;;3.03;;
793;SDS011;380;48.738;9.214;2023-06-01T10:39:09;5.25;;;3.22;;
793;SDS011;380;48.738;9.214;2023-06-01T10:41:37;4.07;;;3.13;;
793;SDS011;380;48.738;9.214;2023-06-01T10:44:03;5.25;;;3.50;;
793;SDS011;380;48.738;9.214;2023-06-01T10:46:36;4.50;;;3.35;;
793;SDS011;380;48.738;9.214;2023-06-01T10:49:03;4.30;;;3.33;;
793;SDS011;380;48.738;9.214;2023-06-01T10:51:29;5.10;;;3.47;;
793;SDS011;380;48.738;9.214;2023-06-01T10:54:05;7.35;;;3.50;;
793;SDS011;380;48.738;9.214;2023-06-01T10:56:41;3.70;;;3.38;;
793;SDS011;380;48.738;9.214;2023-06-01T11:01:43;6.53;;;2.75;;
793;SDS011;380;48.738;9.214;2023-06-01T11:04:09;4.05;;;3.00;;
793;SDS011;380;48.738;9.214;2023-06-01T11:06:36;6.72;;;3.25;;
793;SDS011;380;48.738;9.214;2023-06-01T11:09:04;4.93;;;3.58;;
793;SDS011;380;48.738;9.214;2023-06-01T11:14:29;4.15;;;3.15;;
793;SDS011;380;48.738;9.214;2023-06-01T11:17:24;4.55;;;3.70;;
793;SDS011;380;48.738;9.214;2023-06-01T11:19:43;4.75;;;2.92;;
793;SDS011;380;48.738;9.214;2023-06-01T11:22:09;7.38;;;4.40;;
793;SDS011;380;48.738;9.214;2023-06-01T11:24:37;3.85;;;3.30;;
793;SDS011;380;48.738;9.214;2023-06-01T11:27:06;6.90;;;3.10;;
793;SDS011;380;48.738;9.214;2023-06-01T11:29:33;4.28;;;3.22;;
793;SDS011;380;48.738;9.214;2023-06-01T11:32:00;5.28;;;3.40;;
793;SDS011;380;48.738;9.214;2023-06-01T11:34:31;5.00;;;3.40;;
793;SDS011;380;48.738;9.214;2023-06-01T11:36:58;6.32;;;3.10;;
793;SDS011;380;48.738;9.214;2023-06-01T11:39:26;4.13;;;3.10;;
793;SDS011;380;48.738;9.214;2023-06-01T11:42:04;5.50;;;4.10;;
793;SDS011;380;48.738;9.214;2023-06-01T11:44:30;5.20;;;3.80;;
793;SDS011;380;48.738;9.214;2023-06-01T11:46:56;5.10;;;3.30;;
793;SDS011;380;48.738;9.214;2023-06-01T11:49:24;4.38;;;3.38;;
793;SDS011;380;48.738;9.214;2023-06-01T11:51:50;6.20;;;3.42;;
793;SDS011;380;48.738;9.214;2023-06-01T11:54:16;3.78;;;3.35;;
793;SDS011;380;48.738;9.214;2023-06-01T11:56:46;5.47;;;3.55;;
793;SDS011;380;48.738;9.214;2023-06-01T11:59:12;7.57;;;3.35;;
793;SDS011;380;48.738;9.214;2023-06-01T12:01:42;5.40;;;2.85;;
793;SDS011;380;48.738;9.214;2023-06-01T12:04:12;8.38;;;3.80;;
793;SDS011;380;48.738;9.214;2023-06-01T12:06:38;8.68;;;3.35;;
793;SDS011;380;48.738;9.214;2023-06-01T12:09:04;4.47;;;3.25;;
793;SDS011;380;48.738;9.214;2023-06-01T12:11:31;3.97;;;3.55;;
793;SDS011;380;48.738;9.214;2023-06-01T12:13:58;4.70;;;3.45;;
793;SDS011;380;48.738;9.214;2023-06-01T12:16:25;5.53;;;3.65;;
793;SDS011;380;48.738;9.214;2023-06-01T12:19:13;4.18;;;3.78;;
793;SDS011;380;48.738;9.214;2023-06-01T12:21:39;5.40;;;3.55;;
793;SDS011;380;48.738;9.214;2023-06-01T12:24:05;3.90;;;3.25;;
793;SDS011;380;48.738;9.214;2023-06-01T12:26:37;4.88;;;3.45;;
793;SDS011;380;48.738;9.214;2023-06-01T12:29:07;11.63;;;3.72;;
793;SDS011;380;48.738;9.214;2023-06-01T12:31:33;5.28;;;3.80;;
793;SDS011;380;48.738;9.214;2023-06-01T12:33:59;7.38;;;4.10;;
793;SDS011;380;48.738;9.214;2023-06-01T12:36:29;4.90;;;3.42;;
793;SDS011;380;48.738;9.214;2023-06-01T12:38:59;5.68;;;3.28;;
793;SDS011;380;48.738;9.214;2023-06-01T12:41:25;4.38;;;3.33;;
793;SDS011;380;48.738;9.214;2023-06-01T12:43:51;4.97;;;3.67;;
793;SDS011;380;48.738;9.214;2023-06-01T12:48:44;9.68;;;3.58;;
793;SDS011;380;48.738;9.214;2023-06-01T12:51:11;4.15;;;3.22;;
793;SDS011;380;48.738;9.214;2023-06-01T12:53:38;3.90;;;3.20;;
793;SDS011;380;48.738;9.214;2023-06-01T12:56:04;4.68;;;3.10;;
793;SDS011;380;48.738;9.214;2023-06-01T12:58:31;4.65;;;2.67;;
793;SDS011;380;48.738;9.214;2023-06-01T13:00:57;6.32;;;3.75;;
793;SDS011;380;48.738;9.214;2023-06-01T13:03:23;3.42;;;2.67;;
793;SDS011;380;48.738;9.214;2023-06-01T13:05:49;5.20;;;3.72;;
793;SDS011;380;48.738;9.214;2023-06-01T13:08:16;4.82;;;3.50;;
793;SDS011;380;48.738;9.214;2023-06-01T13:10:42;5.40;;;3.95;;
793;SDS011;380;48.738;9.214;2023-06-01T13:13:08;7.38;;;3.80;;
793;SDS011;380;48.738;9.214;2023-06-01T13:15:34;3.55;;;2.78;;
793;SDS011;380;48.738;9.214;2023-06-01T13:18:01;4.50;;;3.10;;
793;SDS011;380;48.738;9.214;2023-06-01T13:20:27;4.63;;;3.35;;
793;SDS011;380;48.738;9.214;2023-06-01T13:22:53;5.53;;;3.67;;
793;SDS011;380;48.738;9.214;2023-06-01T13:25:19;5.30;;;3.15;;
793;SDS011;380;48.738;9.214;2023-06-01T13:27:45;4.70;;;2.72;;
793;SDS011;380;48.738;9.214;2023-06-01T13:30:12;3.63;;;2.80;;
793;SDS011;380;48.738;9.214;2023-06-01T13:32:38;4.03;;;3.00;;
793;SDS011;380;48.738;9.214;2023-06-01T13:35:04;4.03;;;3.03;;
793;SDS011;380;48.738;9.214;2023-06-01T13:37:31;4.18;;;3.35;;
793;SDS011;380;48.738;9.214;2023-06-01T13:39:57;3.97;;;3.00;;
793;SDS011;380;48.738;9.214;2023-06-01T13:42:23;6.78;;;3.42;;
793;SDS011;380;48.738;9.214;2023-06-01T13:44:49;3.78;;;3.08;;
793;SDS011;380;48.738;9.214;2023-06-01T13:47:16;4.60;;;3.03;;
793;SDS011;380;48.738;9.214;2023-06-01T13:49:42;4.30;;;3.60;;
793;SDS011;380;48.738;9.214;2023-06-01T13:52:09;4.72;;;3.20;;
793;SDS011;380;48.738;9.214;2023-06-01T13:54:36;3.40;;;2.83;;
793;SDS011;380;48.738;9.214;2023-06-01T13:57:02;4.88;;;3.15;;
793;SDS011;380;48.738;9.214;2023-06-01T13:59:30;4.22;;;2.90;;
793;SDS011;380;48.738;9.214;2023-06-01T14:01:57;4.55;;;3.25;;
793;SDS011;380;48.738;9.214;2023-06-01T14:04:23;3.58;;;2.78;;
793;SDS011;380;48.738;9.214;2023-06-01T14:06:49;4.25;;;3.05;;
793;SDS011;380;48.738;9.214;2023-06-01T14:09:15;3.85;;;3.03;;
793;SDS011;380;48.738;9.214;2023-06-01T14:11:41;5.45;;;2.50;;
793;SDS011;380;48.738;9.214;2023-06-01T14:14:07;5.95;;;2.95;;
793;SDS011;380;48.738;9.214;2023-06-01T14:16:33;4.05;;;3.20;;
793;SDS011;380;48.738;9.214;2023-06-01T14:18:59;3.40;;;2.63;;
793;SDS011;380;48.738;9.214;2023-06-01T14:21:25;3.75;;;3.00;;
793;SDS011;380;48.738;9.214;2023-06-01T14:23:52;6.63;;;2.95;;
793;SDS011;380;48.738;9.214;2023-06-01T14:26:18;6.32;;;2.47;;
793;SDS011;380;48.738;9.214;2023-06-01T14:28:44;3.35;;;2.60;;
793;SDS011;380;48.738;9.214;2023-06-01T14:31:10;3.55;;;2.80;;
793;SDS011;380;48.738;9.214;2023-06-01T14:33:36;5.53;;;2.30;;
793;SDS011;380;48.738;9.214;2023-06-01T14:36:02;3.80;;;2.47;;
793;SDS011;380;48.738;9.214;2023-06-01T14:38:29;4.93;;;2.72;;
793;SDS011;380;48.738;9.214;2023-06-01T14:40:55;4.72;;;2.92;;
793;SDS011;380;48.738;9.214;2023-06-01T14:43:21;6.82;;;2.95;;
793;SDS011;380;48.738;9.214;2023-06-01T14:45:47;6.93;;;2.78;;
793;SDS011;380;48.738;9.214;2023-06-01T14:48:13;4.88;;;2.95;;
793;SDS011;380;48.738;9.214;2023-06-01T14:50:39;3.65;;;2.13;;
793;SDS011;380;48.738;9.214;2023-06-01T14:53:05;3.08;;;2.50;;
793;SDS011;380;48.738;9.214;2023-06-01T14:55:32;3.17;;;2.15;;
793;SDS011;380;48.738;9.214;2023-06-01T14:57:58;3.78;;;2.33;;
793;SDS011;380;48.738;9.214;2023-06-01T15:00:24;2.58;;;2.00;;
793;SDS011;380;48.738;9.214;2023-06-01T15:02:50;3.22;;;2.30;;
793;SDS011;380;48.738;9.214;2023-06-01T15:05:16;4.03;;;2.50;;
793;SDS011;380;48.738;9.214;2023-06-01T15:07:42;3.90;;;2.70;;
793;SDS011;380;48.738;9.214;2023-06-01T15:10:08;3.85;;;2.28;;
793;SDS011;380;48.738;9.214;2023-06-01T15:12:35;4.25;;;2.22;;
793;SDS011;380;48.738;9.214;2023-06-01T15:15:01;3.40;;;2.53;;
793;SDS011;380;48.738;9.214;2023-06-01T15:17:27;4.82;;;2.13;;
793;SDS011;380;48.738;9.214;2023-06-01T15:19:53;3.95;;;2.72;;
793;SDS011;380;48.738;9.214;2023-06-01T15:22:19;4.47;;;2.70;;
793;SDS011;380;48.738;9.214;2023-06-01T15:24:45;3.55;;;1.98;;
793;SDS011;380;48.738;9.214;2023-06-01T15:27:11;4.45;;;2.38;;
793;SDS011;380;48.738;9.214;2023-06-01T15:29:37;3.13;;;2.00;;
793;SDS011;380;48.738;9.214;2023-06-01T15:32:03;3.08;;;1.83;;
793;SDS011;380;48.738;9.214;2023-06-01T15:34:29;3.25;;;2.10;;
793;SDS011;380;48.738;9.214;2023-06-01T15:36:55;2.80;;;1.75;;
793;SDS011;380;48.738;9.214;2023-06-01T15:39:21;3.05;;;2.10;;
793;SDS011;380;48.738;9.214;2023-06-01T15:41:48;2.40;;;2.00;;
793;SDS011;380;48.738;9.214;2023-06-01T15:44:14;3.40;;;1.90;;
793;SDS011;380;48.738;9.214;2023-06-01T15:46:40;3.85;;;2.13;;
793;SDS011;380;48.738;9.214;2023-06-01T15:49:05;3.95;;;2.40;;
793;SDS011;380;48.738;9.214;2023-06-01T15:51:31;4.07;;;2.60;;
793;SDS011;380;48.738;9.214;2023-06-01T15:53:58;2.83;;;1.55;;
793;SDS011;380;48.738;9.214;2023-06-01T15:56:24;2.63;;;1.58;;
793;SDS011;380;48.738;9.214;2023-06-01T15:58:50;2.97;;;1.90;;
793;SDS011;380;48.738;9.214;2023-06-01T16:01:17;3.20;;;2.13;;
793;SDS011;380;48.738;9.214;2023-06-01T16:03:43;4.13;;;2.40;;
793;SDS011;380;48.738;9.214;2023-06-01T16:06:10;2.50;;;2.08;;
793;SDS011;380;48.738;9.214;2023-06-01T16:08:36;2.72;;;1.50;;
793;SDS011;380;48.738;9.214;2023-06-01T16:11:02;3.45;;;1.70;;
793;SDS011;380;48.738;9.214;2023-06-01T16:13:28;2.78;;;1.88;;
793;SDS011;380;48.738;9.214;2023-06-01T16:15:55;2.78;;;2.15;;